Temp: 16.9°C   Baro: 1010.5mb
  Wind: 4.0mph   Dir: WNW (293°)
  Rain: 0.8mm (0.0mm/hr)
  Solar: 120W/m2  Hum: 91%
 
Bath Spa Weather Station Historical Data
Daily Summary for November 30, 2019 Units:  Metric    English   Both
Daily Weekly Monthly Yearly Custom
  High: Low: Average:
Temperature: 7.6 °C 1.1 °C 4.1 °C
Dew Point: 4.3 °C -0.1 °C 2.3 °C
Humidity: 93% 79.2% 89%
Wind Speed: 21.2km/h 0km/h 6.4km/h
Wind Gust: 43.5km/h - -
Wind- - ENE
Pressure: 1020.5 hPa 1018.2 hPa -
Precipitation: 0.25 mm    
Historical Graphs
 
 
Tabular Data for November 30, 2019
Time Temperature Dew Point Pressure Wind Wind Speed Wind Gust Humidity Rainfall Rate (Hourly) solar
00:04 2.7 °C 1.7 °C 1020.5 hPa ENE 12.2 km/h 17.7 km/h 93% 0 mm 0 W/m2
00:09 2.8 °C 1.8 °C 1020.5 hPa East 4 km/h 17.7 km/h 93% 0 mm 0 W/m2
00:14 2.8 °C 1.8 °C 1020.5 hPa ENE 6 km/h 17.7 km/h 93% 0 mm 0 W/m2
00:19 2.8 °C 1.8 °C 1020.5 hPa ENE 5.6 km/h 14.5 km/h 93% 0 mm 0 W/m2
00:24 2.8 °C 1.8 °C 1020.5 hPa NE 3.9 km/h 16.1 km/h 93% 0 mm 0 W/m2
00:29 2.8 °C 1.8 °C 1020.5 hPa ENE 5.8 km/h 16.1 km/h 93% 0 mm 0 W/m2
00:34 2.7 °C 1.7 °C 1020.5 hPa ENE 3.9 km/h 9.7 km/h 93% 0 mm 0 W/m2
00:39 2.7 °C 1.7 °C 1020.5 hPa East 8.4 km/h 16.1 km/h 93% 0 mm 0 W/m2
00:44 2.7 °C 1.7 °C 1020.5 hPa ENE 4.3 km/h 14.5 km/h 93% 0 mm 0 W/m2
00:49 2.8 °C 1.8 °C 1020.5 hPa ENE 5.3 km/h 14.5 km/h 93% 0 mm 0 W/m2
00:54 2.8 °C 1.8 °C 1020.5 hPa East 7.2 km/h 14.5 km/h 93% 0 mm 0 W/m2
00:59 2.8 °C 1.8 °C 1020.5 hPa East 5.3 km/h 14.5 km/h 93% 0 mm 0 W/m2
01:04 2.8 °C 1.7 °C 1020.5 hPa ENE 6.9 km/h 14.5 km/h 92.8% 0 mm 0 W/m2
01:09 2.7 °C 1.6 °C 1020.5 hPa ENE 4.7 km/h 14.5 km/h 92.3% 0 mm 0 W/m2
01:14 2.7 °C 1.5 °C 1020.5 hPa ENE 2.7 km/h 12.9 km/h 92% 0 mm 0 W/m2
01:19 2.8 °C 1.6 °C 1020.5 hPa ENE 5.6 km/h 12.9 km/h 92% 0 mm 0 W/m2
01:24 2.7 °C 1.5 °C 1020.5 hPa ENE 4.3 km/h 12.9 km/h 92% 0 mm 0 W/m2
01:29 2.7 °C 1.5 °C 1020.5 hPa ENE 5.3 km/h 12.9 km/h 92% 0 mm 0 W/m2
01:34 2.6 °C 1.4 °C 1020.5 hPa ENE 4 km/h 11.3 km/h 92% 0 mm 0 W/m2
01:39 2.5 °C 1.3 °C 1020.5 hPa NE 6.4 km/h 12.9 km/h 92% 0 mm 0 W/m2
01:44 2.4 °C 1.2 °C 1020.5 hPa NE 7.2 km/h 12.9 km/h 92% 0 mm 0 W/m2
01:49 2.4 °C 1.2 °C 1020.2 hPa NE 5.5 km/h 11.3 km/h 92% 0 mm 0 W/m2
01:54 2.4 °C 1.2 °C 1020.5 hPa NE 4.7 km/h 12.9 km/h 92% 0 mm 0 W/m2
01:59 2.3 °C 1.1 °C 1020.5 hPa NE 3.4 km/h 11.3 km/h 92% 0 mm 0 W/m2
02:04 2.2 °C 1 °C 1020.2 hPa NE 4.7 km/h 14.5 km/h 92% 0 mm 0 W/m2
02:09 2.2 °C 1 °C 1020.2 hPa ENE 5.3 km/h 12.9 km/h 92% 0 mm 0 W/m2
02:14 2.2 °C 1 °C 1020.2 hPa NE 5.3 km/h 12.9 km/h 92% 0 mm 0 W/m2
02:19 2.2 °C 1 °C 1020.2 hPa NE 5.1 km/h 8 km/h 92% 0 mm 0 W/m2
02:24 2.2 °C 1 °C 1020.2 hPa ENE 4.2 km/h 8 km/h 92% 0 mm 0 W/m2
02:29 2.2 °C 1 °C 1020.2 hPa ENE 7.1 km/h 11.3 km/h 92% 0 mm 0 W/m2
02:34 2.2 °C 0.9 °C 1020.2 hPa ENE 2.7 km/h 11.3 km/h 92% 0 mm 0 W/m2
02:39 2.1 °C 0.9 °C 1020.2 hPa NE 2.9 km/h 11.3 km/h 92% 0 mm 0 W/m2
02:44 2.1 °C 0.9 °C 1020.2 hPa NE 3.4 km/h 11.3 km/h 92% 0 mm 0 W/m2
02:49 2.1 °C 0.9 °C 1020.2 hPa ENE 1.3 km/h 8 km/h 92% 0 mm 0 W/m2
02:54 2.1 °C 0.9 °C 1020.2 hPa NNE 1.6 km/h 8 km/h 92% 0 mm 0 W/m2
02:59 2.1 °C 0.9 °C 1020.5 hPa NE 1 km/h 4.8 km/h 92% 0 mm 0 W/m2
03:04 2 °C 0.8 °C 1020.5 hPa NE 1 km/h 4.8 km/h 92% 0 mm 0 W/m2
03:09 1.9 °C 0.7 °C 1020.5 hPa NE 0.3 km/h 4.8 km/h 92% 0 mm 0 W/m2
03:14 1.8 °C 0.7 °C 1020.2 hPa NNE 2.4 km/h 8 km/h 92% 0 mm 0 W/m2
03:19 1.8 °C 0.7 °C 1020.2 hPa NNE 1.9 km/h 8 km/h 92% 0 mm 0 W/m2
03:24 1.8 °C 0.7 °C 1020.2 hPa NE 5.1 km/h 11.3 km/h 92% 0 mm 0 W/m2
03:29 1.8 °C 0.6 °C 1020.2 hPa NE 4.5 km/h 11.3 km/h 92% 0 mm 0 W/m2
03:34 1.9 °C 0.7 °C 1020.2 hPa NE 0.6 km/h 8 km/h 92% 0 mm 0 W/m2
03:39 1.8 °C 0.6 °C 1020.2 hPa NE 4.5 km/h 9.7 km/h 92% 0.25 mm 0 W/m2
03:44 1.8 °C 0.6 °C 1020.2 hPa NE 1.4 km/h 8 km/h 92% 0.25 mm 0 W/m2
03:49 1.7 °C 0.5 °C 1020.2 hPa NE 4.3 km/h 8 km/h 92% 0.25 mm 0 W/m2
03:54 1.7 °C 0.5 °C 1020.2 hPa ENE 8 km/h 12.9 km/h 92% 0.25 mm 0 W/m2
03:59 1.6 °C 0.4 °C 1019.9 hPa NE 6.1 km/h 14.5 km/h 92% 0.25 mm 0 W/m2
04:04 1.6 °C 0.4 °C 1020.2 hPa ENE 3.4 km/h 9.7 km/h 92% 0.25 mm 0 W/m2
04:09 1.6 °C 0.4 °C 1020.2 hPa ENE 3.1 km/h 11.3 km/h 92% 0.25 mm 0 W/m2
04:14 1.6 °C 0.4 °C 1019.9 hPa ENE 1.4 km/h 8 km/h 92% 0.25 mm 0 W/m2
04:19 1.6 °C 0.4 °C 1019.9 hPa ENE 3.1 km/h 6.4 km/h 92% 0.25 mm 0 W/m2
04:24 1.6 °C 0.4 °C 1019.9 hPa ENE 2.1 km/h 8 km/h 92% 0.25 mm 0 W/m2
04:29 1.6 °C 0.4 °C 1019.9 hPa NE 9.3 km/h 16.1 km/h 92% 0.25 mm 0 W/m2
04:34 1.7 °C 0.4 °C 1019.9 hPa NE 5.1 km/h 16.1 km/h 92% 0.25 mm 0 W/m2
04:39 1.7 °C 0.5 °C 1019.9 hPa East 5.5 km/h 14.5 km/h 92% 0 mm 0 W/m2
04:44 1.7 °C 0.4 °C 1019.9 hPa East 1.6 km/h 9.7 km/h 92% 0 mm 0 W/m2
04:49 1.6 °C 0.4 °C 1019.9 hPa ENE 1.3 km/h 6.4 km/h 92% 0 mm 0 W/m2
04:54 1.5 °C 0.3 °C 1019.9 hPa ENE 2.3 km/h 4.8 km/h 92% 0 mm 0 W/m2
04:59 1.3 °C 0.1 °C 1019.9 hPa ENE 0.3 km/h 1.6 km/h 92% 0 mm 0 W/m2
05:03 1.3 °C 0.1 °C 1019.9 hPa Calm   1.6 km/h 92% 0 mm 0 W/m2
05:09 1.3 °C 0.1 °C 1019.9 hPa ENE 0.6 km/h 3.2 km/h 92% 0 mm 0 W/m2
05:14 1.2 °C 0 °C 1019.9 hPa ENE 3.2 km/h 8 km/h 92% 0 mm 0 W/m2
05:19 1.2 °C 0 °C 1019.9 hPa East 2.6 km/h 8 km/h 92% 0 mm 0 W/m2
05:24 1.1 °C -0.1 °C 1019.9 hPa East 1.9 km/h 4.8 km/h 92% 0 mm 0 W/m2
05:29 1.1 °C -0.1 °C 1019.9 hPa East 3.7 km/h 8 km/h 92% 0 mm 0 W/m2
05:34 1.1 °C -0.1 °C 1019.9 hPa ESE 2.1 km/h 8 km/h 92% 0 mm 0 W/m2
05:39 1.2 °C -0.1 °C 1019.5 hPa ESE 1.6 km/h 6.4 km/h 92% 0 mm 0 W/m2
05:44 1.2 °C 0 °C 1019.5 hPa ESE 3.9 km/h 11.3 km/h 92% 0 mm 0 W/m2
05:49 1.2 °C 0 °C 1019.5 hPa ESE 1.1 km/h 6.4 km/h 92% 0 mm 0 W/m2
05:54 1.3 °C 0.1 °C 1019.5 hPa ESE 0.6 km/h 3.2 km/h 92% 0 mm 0 W/m2
05:59 1.3 °C 0.1 °C 1019.5 hPa ESE 0.3 km/h 3.2 km/h 92% 0 mm 0 W/m2
06:04 1.3 °C 0.1 °C 1019.5 hPa Calm   3.2 km/h 92% 0 mm 0 W/m2
06:09 1.4 °C 0.2 °C 1019.5 hPa ESE 1.3 km/h 4.8 km/h 92% 0 mm 0 W/m2
06:14 1.6 °C 0.3 °C 1019.5 hPa ESE 2.9 km/h 11.3 km/h 92% 0 mm 0 W/m2
06:19 1.6 °C 0.4 °C 1019.5 hPa East 3.4 km/h 11.3 km/h 92% 0 mm 0 W/m2
06:24 1.6 °C 0.4 °C 1019.2 hPa ESE 3.5 km/h 9.7 km/h 92% 0 mm 0 W/m2
06:29 1.7 °C 0.4 °C 1019.2 hPa East 2.1 km/h 9.7 km/h 92% 0 mm 0 W/m2
06:34 1.7 °C 0.5 °C 1019.2 hPa ESE 2.1 km/h 11.3 km/h 92% 0 mm 0 W/m2
06:39 1.8 °C 0.6 °C 1019.2 hPa ESE 4.5 km/h 11.3 km/h 92% 0 mm 0 W/m2
06:44 1.8 °C 0.7 °C 1019.2 hPa East 4.5 km/h 11.3 km/h 92% 0 mm 0 W/m2
06:48 1.9 °C 0.7 °C 1019.2 hPa East 5.5 km/h 11.3 km/h 92% 0 mm 0 W/m2
06:54 2 °C 0.8 °C 1019.2 hPa East 5.5 km/h 12.9 km/h 92% 0 mm 0 W/m2
06:59 2.1 °C 0.8 °C 1019.2 hPa East 4.7 km/h 12.9 km/h 92% 0 mm 0 W/m2
07:04 2.1 °C 0.8 °C 1019.2 hPa ESE 1.8 km/h 8 km/h 92% 0 mm 0 W/m2
07:09 2.1 °C 0.9 °C 1019.2 hPa East 1.8 km/h 8 km/h 92% 0 mm 0 W/m2
07:14 2.1 °C 0.9 °C 1019.2 hPa ESE 2.7 km/h 6.4 km/h 92% 0 mm 0 W/m2
07:19 2.2 °C 0.9 °C 1019.5 hPa ESE 5.8 km/h 14.5 km/h 92% 0 mm 0 W/m2
07:24 2.2 °C 1.1 °C 1019.2 hPa ENE 5.6 km/h 14.5 km/h 92% 0 mm 0 W/m2
07:28 2.3 °C 1.1 °C 1019.2 hPa SE 6.4 km/h 9.7 km/h 92% 0 mm 0 W/m2
07:34 2.3 °C 1.1 °C 1019.2 hPa East 4 km/h 12.9 km/h 91.4% 0 mm 0 W/m2
07:39 2.3 °C 1 °C 1019.2 hPa SE 3.2 km/h 12.9 km/h 91% 0 mm 0 W/m2
07:44 2.3 °C 1.1 °C 1019.2 hPa ESE 2.7 km/h 11.3 km/h 91% 0 mm 0 W/m2
07:49 2.4 °C 1.2 °C 1019.2 hPa ESE 3.9 km/h 8 km/h 91% 0 mm 0 W/m2
07:54 2.7 °C 1.4 °C 1019.2 hPa East 8.4 km/h 17.7 km/h 91% 0 mm 0 W/m2
07:59 2.8 °C 1.6 °C 1019.2 hPa ESE 4 km/h 17.7 km/h 91% 0 mm 5 W/m2
08:04 3 °C 1.7 °C 1019.2 hPa East 4 km/h 17.7 km/h 91% 0 mm 5 W/m2
08:09 3.1 °C 1.8 °C 1019.2 hPa ESE 8 km/h 16.1 km/h 91% 0 mm 7 W/m2
08:14 3.2 °C 1.8 °C 1019.5 hPa SE 6.1 km/h 20.9 km/h 90.4% 0 mm 11 W/m2
08:19 3.2 °C 1.7 °C 1019.5 hPa SE 2.6 km/h 8 km/h 90% 0 mm 11 W/m2
08:24 3.2 °C 1.7 °C 1019.5 hPa ESE 5.3 km/h 19.3 km/h 90% 0 mm 12 W/m2
08:29 3.3 °C 1.8 °C 1019.5 hPa East 7.4 km/h 14.5 km/h 90% 0 mm 14 W/m2
08:34 3.4 °C 1.9 °C 1019.5 hPa East 6.8 km/h 16.1 km/h 90% 0 mm 14 W/m2
08:39 3.7 °C 2.2 °C 1019.5 hPa East 5.1 km/h 16.1 km/h 90% 0 mm 16 W/m2
08:44 3.7 °C 2.2 °C 1019.5 hPa East 8.7 km/h 17.7 km/h 89% 0 mm 16 W/m2
08:49 3.8 °C 2.2 °C 1019.5 hPa ESE 8.9 km/h 22.5 km/h 89% 0 mm 18 W/m2
08:54 4.1 °C 2.4 °C 1019.5 hPa East 10.8 km/h 25.7 km/h 89% 0 mm 19 W/m2
08:59 4.2 °C 2.5 °C 1019.2 hPa East 8.7 km/h 25.7 km/h 89% 0 mm 25 W/m2
09:04 4.3 °C 2.6 °C 1019.2 hPa East 18 km/h 37 km/h 88.4% 0 mm 30 W/m2
09:09 4.3 °C 2.5 °C 1019.2 hPa East 21.2 km/h 43.5 km/h 88% 0 mm 33 W/m2
09:14 4.3 °C 2.6 °C 1019.2 hPa East 9.2 km/h 37 km/h 88% 0 mm 35 W/m2
09:19 4.4 °C 2.6 °C 1019.2 hPa East 8.9 km/h 32.2 km/h 88% 0 mm 37 W/m2
09:24 4.5 °C 2.7 °C 1019.2 hPa East 9.2 km/h 20.9 km/h 88% 0 mm 37 W/m2
09:29 4.6 °C 2.8 °C 1019.2 hPa East 11.1 km/h 22.5 km/h 88% 0 mm 37 W/m2
09:34 4.7 °C 2.7 °C 1019.5 hPa East 10.8 km/h 17.7 km/h 87% 0 mm 40 W/m2
09:39 4.7 °C 2.7 °C 1019.5 hPa ESE 6.8 km/h 16.1 km/h 87% 0 mm 42 W/m2
09:44 4.8 °C 2.8 °C 1019.5 hPa East 8.5 km/h 19.3 km/h 87% 0 mm 40 W/m2
09:49 4.8 °C 2.8 °C 1019.5 hPa ESE 8.2 km/h 17.7 km/h 87% 0 mm 40 W/m2
09:54 4.8 °C 2.8 °C 1019.5 hPa ESE 4.7 km/h 14.5 km/h 87% 0 mm 40 W/m2
09:59 4.8 °C 2.8 °C 1019.5 hPa ESE 6.3 km/h 17.7 km/h 87% 0 mm 40 W/m2
10:04 4.8 °C 2.8 °C 1019.9 hPa ESE 5.8 km/h 14.5 km/h 87% 0 mm 44 W/m2
10:09 4.8 °C 2.8 °C 1019.9 hPa East 7.7 km/h 16.1 km/h 87% 0 mm 42 W/m2
10:14 4.8 °C 2.8 °C 1019.5 hPa SE 8.4 km/h 19.3 km/h 87% 0 mm 47 W/m2
10:19 4.9 °C 2.9 °C 1019.5 hPa East 6.3 km/h 19.3 km/h 87% 0 mm 54 W/m2
10:24 4.9 °C 2.9 °C 1019.9 hPa East 5.3 km/h 20.9 km/h 87% 0 mm 54 W/m2
10:29 4.9 °C 2.9 °C 1019.9 hPa ESE 4 km/h 11.3 km/h 87% 0 mm 39 W/m2
10:34 4.9 °C 2.9 °C 1019.9 hPa ESE 8 km/h 17.7 km/h 87% 0 mm 42 W/m2
10:39 4.9 °C 2.9 °C 1019.9 hPa East 4.7 km/h 17.7 km/h 87% 0 mm 58 W/m2
10:44 4.9 °C 2.9 °C 1019.9 hPa ESE 6.8 km/h 17.7 km/h 87% 0 mm 83 W/m2
10:49 4.9 °C 2.9 °C 1019.9 hPa East 12.2 km/h 22.5 km/h 87% 0 mm 104 W/m2
10:54 5.1 °C 3.1 °C 1019.5 hPa ENE 7.9 km/h 19.3 km/h 87% 0 mm 142 W/m2
10:59 5.3 °C 3.3 °C 1019.5 hPa East 7.6 km/h 17.7 km/h 87% 0 mm 174 W/m2
11:04 5.5 °C 3.3 °C 1019.5 hPa East 9 km/h 19.3 km/h 86.2% 0 mm 125 W/m2
11:09 5.4 °C 3.2 °C 1019.5 hPa ESE 6.3 km/h 16.1 km/h 86% 0 mm 111 W/m2
11:14 5.4 °C 3.2 °C 1019.5 hPa ESE 6.3 km/h 20.9 km/h 85.4% 0 mm 118 W/m2
11:19 5.4 °C 3.2 °C 1019.5 hPa East 3.7 km/h 12.9 km/h 85% 0 mm 113 W/m2
11:24 5.4 °C 3.2 °C 1019.5 hPa East 7.1 km/h 19.3 km/h 85% 0 mm 113 W/m2
11:29 5.5 °C 3.2 °C 1019.2 hPa East 8.5 km/h 19.3 km/h 85% 0 mm 107 W/m2
11:33 5.5 °C 3.2 °C 1019.2 hPa East 6.8 km/h 16.1 km/h 85% 0 mm 128 W/m2
11:39 5.7 °C 3.3 °C 1019.2 hPa East 8.9 km/h 20.9 km/h 85% 0 mm 144 W/m2
11:44 5.7 °C 3.3 °C 1019.2 hPa East 9.7 km/h 16.1 km/h 85% 0 mm 181 W/m2
11:49 5.8 °C 3.4 °C 1019.2 hPa East 8.4 km/h 16.1 km/h 84.4% 0 mm 188 W/m2
11:54 6.2 °C 3.7 °C 1018.8 hPa East 11.4 km/h 20.9 km/h 84% 0 mm 197 W/m2
11:59 6.4 °C 3.8 °C 1018.8 hPa East 10.1 km/h 22.5 km/h 83.4% 0 mm 234 W/m2
12:04 6.6 °C 3.8 °C 1018.8 hPa East 9.2 km/h 22.5 km/h 83% 0 mm 250 W/m2
12:09 6.8 °C 3.9 °C 1018.8 hPa East 8.4 km/h 24.1 km/h 82.2% 0 mm 253 W/m2
12:14 7 °C 4.1 °C 1018.8 hPa East 8.7 km/h 16.1 km/h 81.6% 0 mm 258 W/m2
12:19 7.1 °C 4.1 °C 1018.8 hPa ENE 11.4 km/h 22.5 km/h 81% 0 mm 260 W/m2
12:24 7.2 °C 4.2 °C 1018.8 hPa East 10.6 km/h 22.5 km/h 80.8% 0 mm 255 W/m2
12:29 7.4 °C 4.3 °C 1018.8 hPa East 8 km/h 20.9 km/h 80% 0 mm 251 W/m2
12:34 7.6 °C 4.3 °C 1018.8 hPa ENE 9 km/h 22.5 km/h 79.8% 0 mm 239 W/m2
12:39 7.5 °C 4.2 °C 1018.8 hPa East 6.1 km/h 27.4 km/h 79.2% 0 mm 202 W/m2
12:44 7.4 °C 4.1 °C 1018.5 hPa East 8 km/h 20.9 km/h 79.2% 0 mm 153 W/m2
12:49 7.3 °C 3.9 °C 1018.8 hPa East 9.5 km/h 20.9 km/h 79.2% 0 mm 107 W/m2
12:54 7 °C 3.7 °C 1018.8 hPa East 10.1 km/h 16.1 km/h 79.6% 0 mm 90 W/m2
12:59 6.8 °C 3.6 °C 1018.8 hPa ENE 7.1 km/h 16.1 km/h 80% 0 mm 90 W/m2
13:04 6.7 °C 3.6 °C 1018.8 hPa NE 9.3 km/h 20.9 km/h 80.8% 0 mm 69 W/m2
13:09 6.6 °C 3.6 °C 1018.8 hPa East 8.7 km/h 16.1 km/h 81% 0 mm 60 W/m2
13:14 6.6 °C 3.6 °C 1018.8 hPa East 6.4 km/h 17.7 km/h 81% 0 mm 54 W/m2
13:19 6.5 °C 3.6 °C 1018.8 hPa ENE 7.9 km/h 17.7 km/h 81.8% 0 mm 51 W/m2
13:24 6.5 °C 3.6 °C 1018.8 hPa ENE 6.8 km/h 17.7 km/h 82% 0 mm 56 W/m2
13:29 6.5 °C 3.6 °C 1018.5 hPa ENE 9 km/h 17.7 km/h 82% 0 mm 74 W/m2
13:34 6.6 °C 3.7 °C 1018.5 hPa ENE 3.9 km/h 12.9 km/h 82% 0 mm 90 W/m2
13:39 6.7 °C 3.8 °C 1018.5 hPa NE 7.4 km/h 16.1 km/h 82% 0 mm 90 W/m2
13:44 6.7 °C 3.8 °C 1018.5 hPa NE 5.5 km/h 19.3 km/h 82% 0 mm 74 W/m2
13:49 6.7 °C 3.8 °C 1018.5 hPa East 7.9 km/h 17.7 km/h 82% 0 mm 70 W/m2
13:54 6.7 °C 3.8 °C 1018.5 hPa ENE 4.3 km/h 12.9 km/h 82% 0 mm 65 W/m2
13:59 6.7 °C 3.8 °C 1018.5 hPa East 4.7 km/h 14.5 km/h 82% 0 mm 60 W/m2
14:04 6.7 °C 3.8 °C 1018.5 hPa East 9 km/h 17.7 km/h 82.2% 0 mm 60 W/m2
14:09 6.7 °C 4 °C 1018.5 hPa East 4.2 km/h 17.7 km/h 83% 0 mm 58 W/m2
14:14 6.7 °C 4 °C 1018.5 hPa East 6.4 km/h 17.7 km/h 83% 0 mm 58 W/m2
14:19 6.7 °C 4 °C 1018.5 hPa ENE 8.9 km/h 17.7 km/h 83% 0 mm 56 W/m2
14:24 6.7 °C 3.9 °C 1018.5 hPa East 9.3 km/h 20.9 km/h 82.2% 0 mm 54 W/m2
14:29 6.7 °C 3.8 °C 1018.5 hPa East 7.4 km/h 25.7 km/h 82% 0 mm 54 W/m2
14:34 6.7 °C 3.8 °C 1018.5 hPa East 8.9 km/h 19.3 km/h 82% 0 mm 51 W/m2
14:39 6.8 °C 3.9 °C 1018.5 hPa East 6.8 km/h 22.5 km/h 82% 0 mm 51 W/m2
14:44 6.8 °C 3.8 °C 1018.5 hPa NE 4.5 km/h 14.5 km/h 82% 0 mm 53 W/m2
14:49 6.7 °C 3.8 °C 1018.2 hPa NE 11.3 km/h 19.3 km/h 82% 0 mm 53 W/m2
14:54 6.6 °C 3.7 °C 1018.5 hPa ENE 12.1 km/h 22.5 km/h 82% 0 mm 49 W/m2
14:59 6.6 °C 3.7 °C 1018.2 hPa ENE 8 km/h 20.9 km/h 82% 0 mm 47 W/m2
15:04 6.5 °C 3.6 °C 1018.2 hPa ENE 7.4 km/h 19.3 km/h 82.2% 0 mm 44 W/m2
15:09 6.4 °C 3.7 °C 1018.2 hPa ENE 3.5 km/h 20.9 km/h 83% 0 mm 42 W/m2
15:14 6.4 °C 3.7 °C 1018.2 hPa ENE 8.4 km/h 16.1 km/h 83% 0 mm 37 W/m2
15:19 6.3 °C 3.7 °C 1018.2 hPa ENE 9.3 km/h 19.3 km/h 83% 0 mm 35 W/m2
15:24 6.3 °C 3.6 °C 1018.2 hPa East 7.9 km/h 19.3 km/h 83% 0 mm 32 W/m2
15:29 6.3 °C 3.6 °C 1018.2 hPa East 7.4 km/h 17.7 km/h 83.2% 0 mm 26 W/m2
15:34 6.2 °C 3.7 °C 1018.2 hPa ENE 6.9 km/h 20.9 km/h 84% 0 mm 23 W/m2
15:39 6.2 °C 3.7 °C 1018.2 hPa East 9.3 km/h 20.9 km/h 84% 0 mm 19 W/m2
15:44 6.2 °C 3.7 °C 1018.5 hPa ENE 6.8 km/h 20.9 km/h 84% 0 mm 16 W/m2
15:49 6.1 °C 3.6 °C 1018.5 hPa East 7.6 km/h 16.1 km/h 84% 0 mm 12 W/m2
15:54 6.1 °C 3.7 °C 1018.5 hPa NE 6.6 km/h 17.7 km/h 84.2% 0 mm 9 W/m2
15:59 6 °C 3.7 °C 1018.5 hPa ENE 2.9 km/h 17.7 km/h 85% 0 mm 5 W/m2
16:04 5.9 °C 3.6 °C 1018.5 hPa East 8.4 km/h 20.9 km/h 85% 0 mm 0 W/m2
16:09 5.9 °C 3.6 °C 1018.5 hPa ENE 9 km/h 20.9 km/h 85% 0 mm 0 W/m2
16:14 5.9 °C 3.6 °C 1018.5 hPa East 5.1 km/h 19.3 km/h 85% 0 mm 0 W/m2
16:19 5.8 °C 3.6 °C 1018.5 hPa ENE 5.3 km/h 12.9 km/h 85% 0 mm 0 W/m2
16:24 5.8 °C 3.6 °C 1018.5 hPa ENE 10.9 km/h 17.7 km/h 85.8% 0 mm 0 W/m2
16:29 5.8 °C 3.6 °C 1018.5 hPa ENE 5 km/h 17.7 km/h 86% 0 mm 0 W/m2
16:34 5.8 °C 3.6 °C 1018.5 hPa NE 12.2 km/h 20.9 km/h 86% 0 mm 0 W/m2
16:39 5.7 °C 3.6 °C 1018.2 hPa ENE 4.7 km/h 16.1 km/h 86% 0 mm 0 W/m2
16:44 5.7 °C 3.5 °C 1018.2 hPa NE 11.6 km/h 17.7 km/h 86% 0 mm 0 W/m2
16:49 5.7 °C 3.5 °C 1018.2 hPa NE 1.9 km/h 16.1 km/h 86% 0 mm 0 W/m2
16:54 5.7 °C 3.5 °C 1018.2 hPa NE 4.7 km/h 12.9 km/h 86% 0 mm 0 W/m2
16:59 5.7 °C 3.5 °C 1018.5 hPa NE 6.6 km/h 14.5 km/h 86% 0 mm 0 W/m2
17:03 5.7 °C 3.4 °C 1018.5 hPa ENE 12.1 km/h 25.7 km/h 86% 0 mm 0 W/m2
17:09 5.6 °C 3.4 °C 1018.5 hPa East 7.7 km/h 14.5 km/h 86% 0 mm 0 W/m2
17:14 5.6 °C 3.4 °C 1018.5 hPa East 6 km/h 14.5 km/h 86% 0 mm 0 W/m2
17:19 5.6 °C 3.6 °C 1018.5 hPa ENE 8.5 km/h 19.3 km/h 87% 0 mm 0 W/m2
17:24 5.6 °C 3.6 °C 1018.5 hPa ENE 4.2 km/h 16.1 km/h 87% 0 mm 0 W/m2
17:29 5.6 °C 3.6 °C 1018.5 hPa East 5.5 km/h 14.5 km/h 87% 0 mm 0 W/m2
17:34 5.6 °C 3.6 °C 1018.5 hPa NE 7.6 km/h 19.3 km/h 87% 0 mm 0 W/m2
17:39 5.6 °C 3.6 °C 1018.5 hPa ENE 6.9 km/h 20.9 km/h 87% 0 mm 0 W/m2
17:44 5.6 °C 3.4 °C 1018.5 hPa ENE 10.1 km/h 24.1 km/h 86.2% 0 mm 0 W/m2
17:49 5.5 °C 3.3 °C 1018.8 hPa East 10.6 km/h 16.1 km/h 86% 0 mm 0 W/m2
17:54 5.5 °C 3.3 °C 1018.8 hPa ENE 7.2 km/h 17.7 km/h 86% 0 mm 0 W/m2
17:59 5.4 °C 3.3 °C 1018.8 hPa ENE 8.2 km/h 24.1 km/h 86.6% 0 mm 0 W/m2
18:04 5.4 °C 3.3 °C 1018.8 hPa ENE 6 km/h 24.1 km/h 86.5% 0 mm 0 W/m2
18:09 5.4 °C 3.3 °C 1018.8 hPa East 8.2 km/h 24.1 km/h 86.4% 0 mm 0 W/m2
18:14 5.4 °C 3.4 °C 1018.8 hPa NE 6 km/h 24.1 km/h 87% 0 mm 0 W/m2
18:19 5.4 °C 3.4 °C 1018.8 hPa ENE 7.2 km/h 17.7 km/h 87% 0 mm 0 W/m2
18:24 5.3 °C 3.3 °C 1018.8 hPa NE 5.5 km/h 17.7 km/h 87% 0 mm 0 W/m2
18:29 5.2 °C 3.2 °C 1018.8 hPa ENE 13.2 km/h 17.7 km/h 87% 0 mm 0 W/m2
18:34 5.2 °C 3.2 °C 1019.2 hPa ENE 7.2 km/h 17.7 km/h 87% 0 mm 0 W/m2
18:39 5.1 °C 3.1 °C 1019.2 hPa ENE 11.6 km/h 25.7 km/h 87% 0 mm 0 W/m2
18:44 5.1 °C 3.1 °C 1019.2 hPa ENE 12.2 km/h 20.9 km/h 87% 0 mm 0 W/m2
18:49 5.1 °C 3.3 °C 1019.2 hPa ENE 7.4 km/h 20.9 km/h 88% 0 mm 0 W/m2
18:54 4.9 °C 3.2 °C 1019.2 hPa ENE 6 km/h 17.7 km/h 88% 0 mm 0 W/m2
18:59 4.9 °C 3.1 °C 1019.2 hPa ENE 7.9 km/h 17.7 km/h 88% 0 mm 0 W/m2
19:04 4.8 °C 3 °C 1019.5 hPa NE 5.5 km/h 20.9 km/h 88% 0 mm 0 W/m2
19:09 4.7 °C 2.9 °C 1019.5 hPa ENE 10 km/h 19.3 km/h 88% 0 mm 0 W/m2
19:14 4.7 °C 2.9 °C 1019.5 hPa ENE 8 km/h 17.7 km/h 88% 0 mm 0 W/m2
19:19 4.7 °C 2.9 °C 1019.5 hPa NE 7.2 km/h 19.3 km/h 88.2% 0 mm 0 W/m2
19:24 4.6 °C 2.9 °C 1019.5 hPa ENE 6.6 km/h 19.3 km/h 89% 0 mm 0 W/m2
19:29 4.6 °C 2.9 °C 1019.2 hPa ENE 7.9 km/h 14.5 km/h 89% 0 mm 0 W/m2
19:34 4.6 °C 2.9 °C 1019.2 hPa NE 12.6 km/h 27.4 km/h 89% 0 mm 0 W/m2
19:39 4.6 °C 2.9 °C 1019.2 hPa ENE 8.9 km/h 20.9 km/h 89% 0 mm 0 W/m2
19:44 4.5 °C 2.8 °C 1019.2 hPa ENE 6.8 km/h 27.4 km/h 89% 0 mm 0 W/m2
19:49 4.4 °C 2.7 °C 1019.2 hPa NE 9.8 km/h 17.7 km/h 89% 0 mm 0 W/m2
19:54 4.4 °C 2.7 °C 1019.2 hPa ENE 7.7 km/h 17.7 km/h 89% 0 mm 0 W/m2
19:59 4.3 °C 2.7 °C 1019.2 hPa NE 6.6 km/h 17.7 km/h 89% 0 mm 0 W/m2
20:04 4.3 °C 2.6 °C 1019.2 hPa NE 5.6 km/h 17.7 km/h 89% 0 mm 0 W/m2
20:09 4.3 °C 2.6 °C 1019.5 hPa East 12.6 km/h 20.9 km/h 89% 0 mm 0 W/m2
20:14 4.3 °C 2.8 °C 1019.5 hPa ENE 5.8 km/h 20.9 km/h 90% 0 mm 0 W/m2
20:19 4.3 °C 2.8 °C 1019.5 hPa ENE 7.2 km/h 16.1 km/h 90% 0 mm 0 W/m2
20:24 4.3 °C 2.8 °C 1019.5 hPa ENE 11.9 km/h 20.9 km/h 90% 0 mm 0 W/m2
20:29 4.3 °C 2.6 °C 1019.5 hPa ENE 5.6 km/h 17.7 km/h 89.2% 0 mm 0 W/m2
20:34 4.2 °C 2.5 °C 1019.9 hPa NE 3.2 km/h 11.3 km/h 89% 0 mm 0 W/m2
20:39 4.1 °C 2.6 °C 1019.9 hPa NE 5.3 km/h 19.3 km/h 89.6% 0 mm 0 W/m2
20:44 4.1 °C 2.6 °C 1019.9 hPa NE 8.7 km/h 17.7 km/h 90% 0 mm 0 W/m2
20:49 4.1 °C 2.6 °C 1019.9 hPa NE 6.1 km/h 16.1 km/h 90% 0 mm 0 W/m2
20:54 4.1 °C 2.6 °C 1019.9 hPa NNE 4.7 km/h 16.1 km/h 90% 0 mm 0 W/m2
20:59 4 °C 2.5 °C 1019.9 hPa NE 6.8 km/h 17.7 km/h 90% 0 mm 0 W/m2
21:04 4 °C 2.5 °C 1019.9 hPa NE 7.2 km/h 17.7 km/h 90% 0 mm 0 W/m2
21:09 3.9 °C 2.4 °C 1019.9 hPa NE 6.3 km/h 14.5 km/h 90% 0 mm 0 W/m2
21:14 3.9 °C 2.4 °C 1020.2 hPa NE 10.6 km/h 17.7 km/h 90% 0 mm 0 W/m2
21:19 3.9 °C 2.4 °C 1020.2 hPa ENE 7.2 km/h 16.1 km/h 90% 0 mm 0 W/m2
21:24 3.8 °C 2.3 °C 1020.2 hPa NE 11.7 km/h 20.9 km/h 90% 0 mm 0 W/m2
21:29 3.8 °C 2.3 °C 1020.2 hPa ENE 9.3 km/h 20.9 km/h 90% 0 mm 0 W/m2
21:34 3.8 °C 2.3 °C 1020.2 hPa NE 5.1 km/h 14.5 km/h 90% 0 mm 0 W/m2
21:39 3.8 °C 2.3 °C 1020.5 hPa ENE 8 km/h 17.7 km/h 90% 0 mm 0 W/m2
21:44 3.8 °C 2.3 °C 1020.5 hPa ENE 6.9 km/h 17.7 km/h 90% 0 mm 0 W/m2
21:49 3.8 °C 2.3 °C 1020.5 hPa NE 6.4 km/h 14.5 km/h 90% 0 mm 0 W/m2
21:54 3.8 °C 2.3 °C 1020.5 hPa ENE 8.2 km/h 16.1 km/h 90% 0 mm 0 W/m2
21:59 3.7 °C 2.2 °C 1020.2 hPa NE 6.9 km/h 14.5 km/h 90% 0 mm 0 W/m2
22:04 3.7 °C 2.2 °C 1020.5 hPa ENE 6.9 km/h 12.9 km/h 90% 0 mm 0 W/m2
22:09 3.7 °C 2.2 °C 1020.5 hPa NE 5.1 km/h 14.5 km/h 90% 0 mm 0 W/m2
22:14 3.6 °C 2.1 °C 1020.5 hPa NE 10.9 km/h 17.7 km/h 90% 0 mm 0 W/m2
22:19 3.6 °C 2.2 °C 1020.5 hPa ENE 9.7 km/h 20.9 km/h 90.5% 0 mm 0 W/m2
22:24 3.6 °C 2.2 °C 1020.5 hPa NE 6.4 km/h 17.7 km/h 90.8% 0 mm 0 W/m2
22:29 3.6 °C 2.3 °C 1020.5 hPa ENE 5.8 km/h 11.3 km/h 91% 0 mm 0 W/m2
22:34 3.6 °C 2.3 °C 1020.5 hPa NE 8.7 km/h 19.3 km/h 91% 0 mm 0 W/m2
22:38 3.6 °C 2.3 °C 1020.5 hPa ENE 2.4 km/h 19.3 km/h 91% 0 mm 0 W/m2
22:44 3.5 °C 2.2 °C 1020.5 hPa ENE 5.3 km/h 16.1 km/h 91% 0 mm 0 W/m2
22:49 3.4 °C 2.1 °C 1020.5 hPa NE 5.1 km/h 14.5 km/h 91% 0 mm 0 W/m2
22:54 3.4 °C 2.1 °C 1020.5 hPa NE 5.8 km/h 20.9 km/h 91% 0 mm 0 W/m2
22:59 3.4 °C 2.1 °C 1020.5 hPa NE 8.7 km/h 17.7 km/h 91% 0 mm 0 W/m2
23:04 3.4 °C 2.1 °C 1020.5 hPa ENE 6.6 km/h 17.7 km/h 91% 0 mm 0 W/m2
23:09 3.4 °C 2.1 °C 1020.5 hPa ENE 5.6 km/h 14.5 km/h 91% 0 mm 0 W/m2
23:14 3.3 °C 2 °C 1020.5 hPa East 7.9 km/h 14.5 km/h 91% 0 mm 0 W/m2
23:19 3.3 °C 2 °C 1020.5 hPa ENE 4.7 km/h 16.1 km/h 91% 0 mm 0 W/m2
23:24 3.3 °C 2 °C 1020.5 hPa NE 7.7 km/h 16.1 km/h 91% 0 mm 0 W/m2
23:29 3.3 °C 2 °C 1020.5 hPa ENE 7.1 km/h 17.7 km/h 91% 0 mm 0 W/m2
23:34 3.3 °C 2 °C 1020.5 hPa NE 8 km/h 16.1 km/h 91% 0 mm 0 W/m2
23:39 3.2 °C 1.9 °C 1020.5 hPa ENE 5.1 km/h 16.1 km/h 91% 0 mm 0 W/m2
23:44 3.2 °C 1.9 °C 1020.5 hPa NE 2.7 km/h 14.5 km/h 91% 0 mm 0 W/m2
23:49 3.1 °C 1.8 °C 1020.5 hPa NE 6.4 km/h 16.1 km/h 91% 0 mm 0 W/m2
23:54 3.1 °C 1.8 °C 1020.5 hPa NE 5.3 km/h 12.9 km/h 91% 0 mm 0 W/m2
23:59 3.1 °C 1.8 °C 1020.5 hPa ENE 7.1 km/h 17.7 km/h 91% 0 mm 0 W/m2
Bath Spa Weather
Compliments of Weather Underground - 2 mb